Time;durP1;ratioP1;P1;durP2;ratioP2;P2;SDS_P1;SDS_P2;PMS_P1;PMS_P2;Temp;Humidity;BMP_temperature;BMP_pressure;BME280_temperature;BME280_humidity;BME280_pressure;Samples;Min_cycle;Max_cycle;Signal;HPM_P1;HPM_P2
2021/03/07 00:01:21;;;;;;;15.15;9.60;;;;;;;4.15;70.33;98124.13;5084129;28;20417;-60
2021/03/07 00:04:05;;;;;;;21.75;12.05;;;;;;;4.06;69.89;98090.28;5084244;28;20237;-61
2021/03/07 00:06:49;;;;;;;15.05;9.10;;;;;;;4.69;69.11;98195.47;5082862;28;20559;-60
2021/03/07 00:09:33;;;;;;;12.68;7.97;;;;;;;4.59;68.95;98165.50;5084494;28;20505;-61
2021/03/07 00:12:17;;;;;;;11.95;8.07;;;;;;;4.77;68.86;98190.41;5082283;28;20100;-60
2021/03/07 00:15:03;;;;;;;12.40;7.13;;;;;;;4.43;69.90;98153.19;5082174;28;20442;-63
2021/03/07 00:17:49;;;;;;;13.18;7.80;;;;;;;3.91;72.81;98183.75;5084109;28;20140;-61
2021/03/07 00:20:34;;;;;;;17.23;8.93;;;;;;;4.23;72.84;98181.00;5082178;28;20055;-61
2021/03/07 00:23:18;;;;;;;13.05;8.45;;;;;;;4.02;72.70;98196.19;5083579;28;20035;-60
2021/03/07 00:26:03;;;;;;;13.23;8.38;;;;;;;4.16;72.10;98183.31;5082402;28;20039;-60
2021/03/07 00:28:47;;;;;;;14.93;9.02;;;;;;;4.33;71.35;98191.78;5082764;28;20575;-60
2021/03/07 00:31:31;;;;;;;11.10;7.22;;;;;;;4.41;70.29;98193.03;5082426;28;20075;-60
2021/03/07 00:34:15;;;;;;;13.20;7.75;;;;;;;4.29;70.43;98168.81;5082012;28;20127;-60
2021/03/07 00:36:59;;;;;;;15.82;10.02;;;;;;;4.43;69.90;98191.59;5082862;28;20800;-60
2021/03/07 00:39:43;;;;;;;14.60;8.02;;;;;;;4.31;70.88;98188.53;5082641;28;20050;-61
2021/03/07 00:42:27;;;;;;;13.82;7.78;;;;;;;3.78;69.80;98071.38;5083757;28;20145;-61
2021/03/07 00:45:13;;;;;;;12.43;8.10;;;;;;;4.64;69.41;98192.84;5083791;28;20112;-60
2021/03/07 00:47:57;;;;;;;10.90;7.35;;;;;;;3.99;70.00;98109.06;5083688;28;20039;-60
2021/03/07 00:50:42;;;;;;;14.05;7.72;;;;;;;4.51;70.15;98182.66;5084188;28;20109;-60
2021/03/07 00:53:26;;;;;;;14.02;8.63;;;;;;;4.40;70.86;98192.22;5082344;28;20058;-61
2021/03/07 00:56:10;;;;;;;12.40;8.38;;;;;;;4.57;70.93;98186.94;5082999;28;20081;-60
2021/03/07 00:58:54;;;;;;;14.75;8.82;;;;;;;4.36;70.64;98141.78;5083338;28;20057;-60
2021/03/07 01:01:38;;;;;;;13.57;7.63;;;;;;;4.23;69.82;98137.13;5081993;28;20048;-60
2021/03/07 01:04:22;;;;;;;13.63;8.07;;;;;;;4.49;70.36;98157.47;5082168;28;20081;-61
2021/03/07 01:07:06;;;;;;;13.25;8.55;;;;;;;4.59;71.17;98175.66;5082043;28;20112;-60
2021/03/07 01:09:50;;;;;;;11.30;7.68;;;;;;;4.28;72.27;98180.09;5082327;28;20104;-62
2021/03/07 01:12:34;;;;;;;13.18;7.28;;;;;;;3.66;72.78;98125.81;5083575;28;20089;-60
2021/03/07 01:15:21;;;;;;;13.80;8.13;;;;;;;3.95;71.94;98123.69;5082662;28;20200;-61
2021/03/07 01:18:06;;;;;;;8.63;6.35;;;;;;;3.42;71.69;98054.72;5083348;28;20624;-61
2021/03/07 01:20:51;;;;;;;9.20;6.50;;;;;;;3.43;75.80;98174.09;5082046;28;20130;-61
2021/03/07 01:23:35;;;;;;;11.05;7.05;;;;;;;3.62;75.48;98180.38;5085502;28;20047;-60
2021/03/07 01:26:19;;;;;;;15.80;7.70;;;;;;;3.58;77.07;98173.88;5086564;28;20075;-60
2021/03/07 01:29:03;;;;;;;13.48;8.00;;;;;;;3.30;77.14;98174.88;5067003;28;20514;-63
2021/03/07 01:31:47;;;;;;;15.77;9.05;;;;;;;2.94;79.50;98179.22;5066411;28;20031;-60
2021/03/07 01:34:32;;;;;;;14.13;8.43;;;;;;;2.86;80.41;98193.53;5066669;28;20051;-60
2021/03/07 01:37:16;;;;;;;14.60;8.45;;;;;;;2.04;82.03;98076.41;5066362;28;20062;-61
2021/03/07 01:40:04;;;;;;;14.35;9.10;;;;;;;2.53;82.80;98169.88;5066265;28;20128;-62
2021/03/07 01:42:53;;;;;;;16.77;9.15;;;;;;;2.54;83.70;98174.22;5066278;28;20043;-59
2021/03/07 01:45:38;;;;;;;16.65;9.73;;;;;;;1.53;83.86;98016.84;5066910;28;20533;-59
2021/03/07 01:48:22;;;;;;;20.08;10.60;;;;;;;1.81;84.79;98088.09;5066459;28;20035;-60
2021/03/07 01:51:08;;;;;;;17.20;10.55;;;;;;;2.22;84.57;98116.63;5066465;28;20181;-61
2021/03/07 01:53:52;;;;;;;17.35;9.55;;;;;;;2.49;83.06;98097.72;5066085;28;20043;-60
2021/03/07 01:56:37;;;;;;;17.05;10.18;;;;;;;3.00;82.63;98172.56;5066200;28;20056;-60
2021/03/07 01:59:23;;;;;;;18.20;9.98;;;;;;;2.75;81.19;98082.59;5065976;28;20117;-59
2021/03/07 02:02:07;;;;;;;17.73;10.15;;;;;;;3.19;80.65;98142.44;5066162;28;20446;-60
2021/03/07 02:04:53;;;;;;;18.30;9.63;;;;;;;3.46;79.01;98186.41;5066501;28;20047;-61
2021/03/07 02:07:39;;;;;;;16.88;9.73;;;;;;;3.52;79.00;98161.38;5066000;28;20393;-60
2021/03/07 02:10:48;;;;;;;16.08;10.57;;;;;;;3.50;78.82;98149.91;5066003;28;20051;-60
2021/03/07 02:13:35;;;;;;;15.38;10.35;;;;;;;2.85;78.05;98033.19;5065446;28;20047;-61
2021/03/07 02:16:23;;;;;;;17.00;9.90;;;;;;;3.50;78.03;98128.00;5064908;28;20446;-61
2021/03/07 02:19:08;;;;;;;17.67;9.85;;;;;;;3.51;78.67;98167.97;5064347;28;20806;-60
2021/03/07 02:21:57;;;;;;;17.63;10.30;;;;;;;3.28;78.94;98130.53;5065899;28;20514;-61
2021/03/07 02:24:41;;;;;;;14.95;10.00;;;;;;;2.66;79.17;98030.47;5065899;28;20389;-60
2021/03/07 02:27:26;;;;;;;17.70;11.38;;;;;;;3.41;79.84;98159.09;5084220;28;20051;-60
2021/03/07 02:30:12;;;;;;;21.05;12.10;;;;;;;2.53;80.72;98046.81;5085545;28;20050;-61
2021/03/07 02:33:08;;;;;;;19.88;11.35;;;;;;;2.77;81.04;98086.66;5085574;28;20035;-59
2021/03/07 02:36:00;;;;;;;24.98;12.05;;;;;;;3.24;80.96;98150.59;5085377;28;20047;-61
2021/03/07 02:38:48;;;;;;;23.55;13.82;;;;;;;3.23;80.25;98135.25;5084573;28;20050;-62
2021/03/07 02:41:34;;;;;;;19.70;12.00;;;;;;;3.12;81.30;98151.03;5085322;28;20075;-60
2021/03/07 02:44:19;;;;;;;19.88;12.30;;;;;;;2.76;79.99;98073.28;5085038;28;20124;-61
2021/03/07 02:47:05;;;;;;;20.30;11.75;;;;;;;3.41;79.49;98151.69;5085313;28;20505;-60
2021/03/07 02:49:53;;;;;;;22.02;11.77;;;;;;;3.41;79.34;98151.69;5085596;28;20058;-59
2021/03/07 02:52:39;;;;;;;18.48;12.13;;;;;;;3.24;79.44;98121.28;5083867;28;20039;-59
2021/03/07 02:55:29;;;;;;;20.17;11.48;;;;;;;3.44;79.11;98156.59;5084801;28;20092;-60
2021/03/07 02:58:16;;;;;;;19.10;10.90;;;;;;;3.47;78.83;98153.25;5084225;28;20533;-60
2021/03/07 03:01:05;;;;;;;19.77;10.15;;;;;;;3.34;79.18;98151.25;5083854;28;20722;-60
2021/03/07 03:03:50;;;;;;;17.83;10.50;;;;;;;1.54;78.99;97837.47;5084972;28;20054;-60
2021/03/07 03:06:37;;;;;;;16.25;10.73;;;;;;;3.43;79.20;98143.19;5083651;28;20039;-60
2021/03/07 03:09:23;;;;;;;18.38;10.93;;;;;;;3.42;78.90;98147.84;5084725;28;20047;-60
2021/03/07 03:12:08;;;;;;;18.30;10.73;;;;;;;2.88;81.81;98153.00;5084648;28;20038;-61
2021/03/07 03:14:53;;;;;;;20.50;10.65;;;;;;;2.69;80.72;98090.06;5084547;28;20063;-62
2021/03/07 03:17:39;;;;;;;17.60;10.73;;;;;;;2.65;80.38;98060.84;5084443;28;20551;-60
2021/03/07 03:20:26;;;;;;;17.40;10.20;;;;;;;3.32;79.31;98158.94;5084526;28;20090;-61
2021/03/07 03:23:10;;;;;;;18.67;10.70;;;;;;;3.02;80.97;98157.44;5084602;28;20147;-59
2021/03/07 03:25:55;;;;;;;20.85;11.75;;;;;;;3.04;80.31;98129.78;5083223;28;20410;-61
2021/03/07 03:28:40;;;;;;;20.30;10.95;;;;;;;2.74;82.18;98158.38;5083192;28;20588;-60
2021/03/07 03:31:24;;;;;;;18.27;11.43;;;;;;;2.58;82.00;98099.50;5083693;28;20139;-61
2021/03/07 03:34:08;;;;;;;17.85;10.35;;;;;;;2.71;83.67;98160.88;5083259;28;20079;-61
2021/03/07 03:36:53;;;;;;;15.15;9.18;;;;;;;1.96;83.31;98115.28;5083119;28;20050;-59
2021/03/07 03:39:38;;;;;;;21.27;10.25;;;;;;;1.92;84.60;98111.47;5084203;28;20414;-59
2021/03/07 03:42:24;;;;;;;16.63;8.75;;;;;;;1.98;83.24;98159.50;5084078;28;20100;-59
2021/03/07 03:45:09;;;;;;;20.15;9.13;;;;;;;1.98;82.60;98154.03;5083910;28;20120;-59
2021/03/07 03:48:00;;;;;;;20.80;9.75;;;;;;;1.26;83.64;98084.81;5084629;28;20039;-59
2021/03/07 03:50:46;;;;;;;25.00;11.20;;;;;;;1.15;85.49;98075.06;5083339;28;20051;-59
2021/03/07 03:53:33;;;;;;;18.13;9.05;;;;;;;1.59;85.81;98162.31;5084412;28;20102;-59
2021/03/07 03:56:20;;;;;;;26.55;11.93;;;;;;;1.40;86.24;98132.16;5084015;28;20114;-60
2021/03/07 03:59:06;;;;;;;20.95;10.20;;;;;;;0.98;86.46;98129.19;5082732;28;20089;-59
2021/03/07 04:01:51;;;;;;;19.67;11.38;;;;;;;2.02;85.02;98168.75;5082301;28;20135;-60
2021/03/07 04:04:35;;;;;;;25.77;11.10;;;;;;;2.09;82.03;98139.16;5082831;28;20066;-62
2021/03/07 04:07:21;;;;;;;17.25;9.07;;;;;;;2.45;80.61;98170.50;5083947;28;20562;-60
2021/03/07 04:10:08;;;;;;;14.75;8.52;;;;;;;2.16;78.85;98101.41;5082566;28;20043;-60
2021/03/07 04:12:57;;;;;;;16.13;8.75;;;;;;;2.77;76.39;98162.44;5083662;28;20069;-59
2021/03/07 04:15:42;;;;;;;15.13;9.68;;;;;;;2.56;76.51;98122.78;5083624;28;20534;-59
2021/03/07 04:18:27;;;;;;;15.32;8.82;;;;;;;2.83;75.53;98155.78;5083907;28;20064;-61
2021/03/07 04:21:12;;;;;;;17.25;9.15;;;;;;;2.44;74.28;98037.63;5084262;28;20075;-62
2021/03/07 04:23:57;;;;;;;18.05;10.20;;;;;;;-1.21;73.53;97446.44;5082338;28;20105;-60
2021/03/07 04:26:41;;;;;;;13.25;8.55;;;;;;;3.36;72.95;98160.00;5084158;28;20055;-60
2021/03/07 04:29:27;;;;;;;21.10;10.73;;;;;;;3.05;72.45;98110.34;5062534;28;20246;-61
2021/03/07 04:32:12;;;;;;;32.17;17.80;;;;;;;3.34;73.78;98161.38;5063046;28;20038;-60
2021/03/07 04:34:56;;;;;;;38.10;20.70;;;;;;;3.01;74.11;98103.00;5062322;28;20419;-60
2021/03/07 04:37:40;;;;;;;44.00;23.13;;;;;;;2.88;74.56;98059.97;5063383;28;20108;-60
2021/03/07 04:40:25;;;;;;;21.80;12.57;;;;;;;3.38;74.34;98127.66;5063311;28;20044;-59
2021/03/07 04:43:09;;;;;;;31.55;16.05;;;;;;;3.01;72.78;98048.28;5063354;28;20046;-59
2021/03/07 04:45:53;;;;;;;20.42;11.77;;;;;;;3.51;72.71;98146.03;5062389;28;20055;-62
2021/03/07 04:48:37;;;;;;;23.65;12.15;;;;;;;3.46;73.05;98148.06;5063981;28;20249;-59
2021/03/07 04:51:22;;;;;;;31.35;13.32;;;;;;;2.98;74.03;98120.03;5063533;28;20094;-60
2021/03/07 04:54:06;;;;;;;27.58;13.80;;;;;;;2.85;74.24;98086.00;5076328;28;20116;-61
2021/03/07 04:56:51;;;;;;;24.80;12.02;;;;;;;3.34;74.83;98161.38;5062765;28;20526;-59
2021/03/07 04:59:35;;;;;;;17.55;11.05;;;;;;;2.88;74.93;98084.59;5066070;28;20044;-59
2021/03/07 05:02:19;;;;;;;19.65;11.95;;;;;;;3.25;75.51;98153.03;5066949;28;20052;-59
2021/03/07 05:05:05;;;;;;;21.25;12.40;;;;;;;3.28;75.67;98157.91;5067253;28;20461;-58
2021/03/07 05:07:50;;;;;;;19.45;11.80;;;;;;;3.18;75.80;98133.41;5067226;28;20486;-59
2021/03/07 05:10:34;;;;;;;18.83;10.73;;;;;;;1.91;76.08;97935.03;5067181;28;20514;-60
2021/03/07 05:13:18;;;;;;;20.15;12.35;;;;;;;3.29;76.91;98165.00;5066602;28;20046;-60
2021/03/07 05:16:03;;;;;;;19.60;11.38;;;;;;;3.17;77.73;98161.91;5066482;28;20064;-60
2021/03/07 05:18:47;;;;;;;19.88;11.93;;;;;;;3.33;77.21;98165.22;5065537;28;20581;-59
2021/03/07 05:21:31;;;;;;;22.67;13.05;;;;;;;3.21;76.78;98124.59;5066094;28;20094;-60
2021/03/07 05:24:15;;;;;;;24.80;12.05;;;;;;;3.44;76.19;98164.78;5079731;28;20546;-60
2021/03/07 05:27:08;;;;;;;20.50;11.25;;;;;;;3.46;75.40;98148.88;5068553;28;20484;-59
2021/03/07 05:29:52;;;;;;;13.38;8.82;;;;;;;2.82;75.84;98045.56;5085626;28;20054;-61
2021/03/07 05:32:36;;;;;;;21.33;12.82;;;;;;;2.31;74.89;97929.03;5085189;28;20142;-61
2021/03/07 05:35:21;;;;;;;26.48;12.70;;;;;;;3.55;75.31;98125.19;5084970;28;20859;-62
2021/03/07 05:38:05;;;;;;;51.38;17.10;;;;;;;3.93;75.12;98165.09;5086391;28;20077;-62
2021/03/07 05:40:49;;;;;;;25.58;15.93;;;;;;;4.18;74.26;98164.66;5087304;28;20054;-60
2021/03/07 05:43:34;;;;;;;39.92;19.02;;;;;;;4.10;73.47;98132.44;5086363;28;20047;-60
2021/03/07 05:46:18;;;;;;;36.85;20.50;;;;;;;3.91;72.75;98071.38;5085021;28;20077;-59
2021/03/07 05:49:09;;;;;;;36.42;21.63;;;;;;;3.89;71.96;98065.38;5085243;28;20752;-60
2021/03/07 05:51:53;;;;;;;21.80;12.60;;;;;;;4.57;70.51;98162.25;5086542;28;20054;-61
2021/03/07 05:54:38;;;;;;;27.30;15.20;;;;;;;4.13;70.60;98109.06;5086185;28;20707;-60
2021/03/07 05:57:26;;;;;;;28.48;15.85;;;;;;;4.64;70.70;98159.09;5086251;28;20070;-61
2021/03/07 06:00:12;;;;;;;24.58;15.55;;;;;;;4.85;69.68;98159.50;5086421;28;20480;-63
2021/03/07 06:02:56;;;;;;;18.60;12.75;;;;;;;4.80;68.97;98159.59;5084946;28;20039;-61
2021/03/07 06:05:41;;;;;;;18.70;11.45;;;;;;;4.85;68.54;98156.75;5084894;28;20047;-61
2021/03/07 06:08:25;;;;;;;21.05;12.18;;;;;;;3.91;68.36;98002.88;5085837;28;20039;-62
2021/03/07 06:11:29;;;;;;;19.73;10.57;;;;;;;4.89;67.99;98160.50;5086327;28;20074;-60
2021/03/07 06:14:20;;;;;;;;;;;;;;;4.71;68.94;98153.22;5086628;28;20626;-61
2021/03/07 06:17:17;;;;;;;16.27;10.27;;;;;;;4.58;69.44;98160.31;5084553;28;19927;-62
2021/03/07 06:20:04;;;;;;;21.33;11.50;;;;;;;4.43;69.52;98164.16;5085711;28;20464;-62
2021/03/07 06:22:52;;;;;;;17.63;10.93;;;;;;;4.52;68.19;98165.06;5084778;28;20095;-62
2021/03/07 06:25:50;;;;;;;19.63;12.18;;;;;;;4.05;68.15;98099.63;5085762;28;20441;-61
2021/03/07 06:28:35;;;;;;;21.85;11.82;;;;;;;4.43;68.23;98169.66;5084542;28;20042;-61
2021/03/07 06:31:30;;;;;;;22.98;12.20;;;;;;;4.18;67.97;98128.19;5085955;28;20079;-62
2021/03/07 06:34:14;;;;;;;19.02;11.05;;;;;;;3.93;67.65;98103.97;5084193;28;20047;-60
2021/03/07 06:37:03;;;;;;;21.92;11.63;;;;;;;4.24;68.20;98182.63;5084775;28;20051;-60
2021/03/07 06:39:48;;;;;;;18.27;11.10;;;;;;;3.73;67.79;98082.41;5085555;28;20124;-62
2021/03/07 06:42:42;;;;;;;19.75;11.82;;;;;;;4.00;69.23;98159.22;5085659;28;20093;-61
2021/03/07 06:45:37;;;;;;;18.02;11.52;;;;;;;4.14;69.44;98160.84;5083882;28;20385;-63
2021/03/07 06:48:33;;;;;;;18.10;10.30;;;;;;;4.35;67.47;98156.63;5085206;28;20659;-61
2021/03/07 06:51:25;;;;;;;16.75;10.85;;;;;;;4.30;65.94;98082.69;5084716;28;20557;-64
2021/03/07 06:54:20;;;;;;;18.95;11.75;;;;;;;5.09;64.06;98154.59;5083917;28;20039;-61
2021/03/07 06:57:05;;;;;;;14.50;10.30;;;;;;;5.08;63.46;98104.34;5084915;28;20047;-63
2021/03/07 06:59:49;;;;;;;18.45;11.48;;;;;;;5.53;62.65;98149.19;5084902;28;20042;-62
2021/03/07 07:02:33;;;;;;;18.77;10.35;;;;;;;5.43;61.59;98132.94;5084798;28;20101;-63
2021/03/07 07:05:41;;;;;;;20.15;11.38;;;;;;;5.51;61.59;98123.94;5084897;28;20050;-62
2021/03/07 07:08:46;;;;;;;19.50;11.43;;;;;;;5.82;60.79;98089.09;5084756;28;20131;-63
2021/03/07 07:11:41;;;;;;;15.15;11.50;;;;;;;6.68;58.96;98148.94;5084698;28;20237;-62
2021/03/07 07:14:40;;;;;;;21.50;12.23;;;;;;;6.84;57.94;98147.41;5083961;28;20100;-62
2021/03/07 07:17:24;;;;;;;17.85;10.95;;;;;;;6.89;57.14;98133.44;5085042;28;20038;-61
2021/03/07 07:20:11;;;;;;;20.50;12.07;;;;;;;6.64;58.27;98147.94;5082719;28;20141;-61
2021/03/07 07:22:55;;;;;;;18.40;12.23;;;;;;;6.55;57.99;98149.03;5084629;28;20051;-63
2021/03/07 07:25:39;;;;;;;18.23;12.10;;;;;;;6.37;58.17;98126.13;5084325;28;20094;-61
2021/03/07 07:28:24;;;;;;;19.75;11.70;;;;;;;6.02;59.84;98147.13;5083216;28;20089;-62
2021/03/07 07:31:14;;;;;;;19.80;12.23;;;;;;;5.81;60.08;98145.19;5084492;28;20050;-60
2021/03/07 07:34:10;;;;;;;22.83;11.52;;;;;;;5.17;59.72;98057.75;5084467;28;20655;-61
2021/03/07 07:37:06;;;;;;;19.40;11.95;;;;;;;5.38;58.82;98014.91;5084243;28;20143;-61
2021/03/07 07:39:55;;;;;;;18.75;11.98;;;;;;;4.59;60.79;98022.81;5083152;28;20047;-62
2021/03/07 07:42:39;;;;;;;21.02;12.05;;;;;;;5.53;60.42;98072.25;5083157;28;20042;-63
2021/03/07 07:45:25;;;;;;;18.67;10.57;;;;;;;5.98;58.67;98123.34;5082374;28;20050;-62
2021/03/07 07:48:09;;;;;;;16.42;10.75;;;;;;;6.00;56.63;98071.59;5084371;28;20047;-62
2021/03/07 07:50:53;;;;;;;15.23;10.13;;;;;;;5.67;56.98;98042.75;5082890;28;20039;-61
2021/03/07 07:53:37;;;;;;;21.70;12.02;;;;;;;5.84;56.04;97990.63;5084372;28;20092;-61
2021/03/07 07:56:42;;;;;;;15.50;10.10;;;;;;;6.95;53.59;98104.66;5083647;28;20418;-60
2021/03/07 07:59:50;;;;;;;14.68;10.32;;;;;;;6.91;52.88;98106.41;5082651;28;20089;-61
2021/03/07 08:02:47;;;;;;;15.13;9.02;;;;;;;6.57;53.03;98098.06;5083706;28;20042;-60
2021/03/07 08:05:37;;;;;;;14.75;9.88;;;;;;;6.12;54.52;98093.81;5084105;28;20046;-60
2021/03/07 08:08:30;;;;;;;15.32;9.60;;;;;;;6.24;53.82;98090.47;5083973;28;20417;-61
2021/03/07 08:11:35;;;;;;;17.13;10.45;;;;;;;6.02;54.96;98119.63;5082894;28;20046;-62
2021/03/07 08:14:34;;;;;;;15.32;9.23;;;;;;;5.67;54.06;97993.28;5083620;28;20043;-62
2021/03/07 08:17:53;;;;;;;45.80;21.20;;;;;;;6.82;52.76;98067.03;5082179;28;20128;-60
2021/03/07 08:20:37;;;;;;;13.63;9.00;;;;;;;7.15;50.40;98070.97;5082211;28;20468;-61
2021/03/07 08:23:23;;;;;;;13.07;8.10;;;;;;;6.70;50.84;98058.56;5082335;28;20518;-61
2021/03/07 08:26:07;;;;;;;11.88;8.25;;;;;;;6.37;50.71;98060.09;5083911;28;20097;-60
2021/03/07 08:28:51;;;;;;;12.38;7.63;;;;;;;6.56;49.56;98038.63;5083588;28;20062;-61
2021/03/07 08:31:36;;;;;;;21.77;11.25;;;;;;;5.81;49.92;97975.56;5084256;28;20058;-61
2021/03/07 08:34:23;;;;;;;17.15;7.88;;;;;;;6.03;50.27;98037.97;5088169;28;20092;-61
2021/03/07 08:37:15;;;;;;;14.00;7.40;;;;;;;5.47;50.56;98096.28;5087439;28;20050;-61
2021/03/07 08:40:37;;;;;;;14.02;8.18;;;;;;;5.85;51.32;98059.06;5086678;28;20047;-60
2021/03/07 08:43:21;;;;;;;27.73;16.33;;;;;;;6.10;50.74;98049.31;5086879;28;20101;-61
2021/03/07 08:46:10;;;;;;;37.90;23.05;;;;;;;6.39;50.77;98041.34;5086500;28;20127;-60
2021/03/07 08:49:19;;;;;;;21.05;13.00;;;;;;;7.15;48.72;98028.81;5087674;28;20110;-60
2021/03/07 08:52:06;;;;;;;30.50;19.67;;;;;;;7.52;47.36;98020.69;5086915;28;20078;-60
2021/03/07 08:54:50;;;;;;;15.63;8.48;;;;;;;5.90;47.70;97882.13;5087305;28;20508;-60
2021/03/07 08:57:35;;;;;;;16.65;10.07;;;;;;;7.05;48.73;98027.19;5080740;28;20110;-61
2021/03/07 09:00:19;;;;;;;19.88;11.90;;;;;;;7.06;46.96;97943.44;5056426;28;20273;-63
2021/03/07 09:03:04;;;;;;;20.23;12.57;;;;;;;7.76;46.24;98013.84;5066691;28;20079;-60
2021/03/07 09:05:49;;;;;;;12.02;7.65;;;;;;;6.13;45.19;97691.91;5067046;28;20600;-61
2021/03/07 09:08:33;;;;;;;13.80;7.68;;;;;;;7.90;44.38;97995.97;5066940;28;20454;-61
2021/03/07 09:11:17;;;;;;;20.10;9.82;;;;;;;7.79;45.03;97996.63;5066950;28;20043;-62
2021/03/07 09:14:02;;;;;;;10.93;7.43;;;;;;;7.58;44.80;97999.28;5066605;28;20075;-61
2021/03/07 09:16:48;;;;;;;9.90;6.88;;;;;;;7.39;45.18;98005.16;5065002;28;20082;-62
2021/03/07 09:19:39;;;;;;;10.32;6.43;;;;;;;7.22;45.12;97996.88;5065734;28;20098;-62
2021/03/07 09:22:31;;;;;;;9.48;6.55;;;;;;;6.31;45.59;97857.78;5066373;28;20048;-62
2021/03/07 09:25:16;;;;;;;17.63;8.02;;;;;;;7.05;46.20;97993.34;5066369;28;20098;-62
2021/03/07 09:28:00;;;;;;;15.30;7.78;;;;;;;6.98;45.93;97963.53;5057721;28;20190;-61
2021/03/07 09:30:56;;;;;;;10.98;6.32;;;;;;;6.98;45.24;97982.81;5046725;28;20102;-61
2021/03/07 09:33:52;;;;;;;17.40;9.05;;;;;;;7.08;45.38;97982.47;5045371;28;20040;-62
2021/03/07 09:36:39;;;;;;;11.25;6.43;;;;;;;7.53;43.91;97989.25;5044756;28;20052;-62
2021/03/07 09:39:23;;;;;;;11.27;7.18;;;;;;;7.80;43.63;97976.19;5046363;28;20488;-62
2021/03/07 09:42:09;;;;;;;7.70;5.30;;;;;;;7.49;41.65;97855.94;5046121;28;20679;-62
2021/03/07 09:44:53;;;;;;;10.68;5.75;;;;;;;8.27;41.92;97961.22;5045580;28;20461;-61
2021/03/07 09:47:38;;;;;;;14.07;8.18;;;;;;;7.57;42.11;97805.47;5046302;28;20106;-61
2021/03/07 09:50:24;;;;;;;11.18;7.68;;;;;;;8.38;41.60;97943.13;5044799;28;20051;-62
2021/03/07 09:53:09;;;;;;;15.32;6.97;;;;;;;8.81;41.78;97946.41;5045124;28;20059;-61
2021/03/07 09:55:53;;;;;;;8.48;5.80;;;;;;;9.13;40.14;97960.31;5044412;28;20654;-61
2021/03/07 09:58:38;;;;;;;11.52;7.30;;;;;;;9.30;40.79;97948.28;5046019;28;20522;-62
2021/03/07 10:01:22;;;;;;;12.52;6.40;;;;;;;9.36;39.85;97949.66;5046127;28;20466;-61
2021/03/07 10:04:29;;;;;;;8.27;6.38;;;;;;;7.53;39.29;97608.81;5045886;28;20426;-61
2021/03/07 10:07:21;;;;;;;7.72;5.43;;;;;;;9.51;38.99;97931.63;5044838;28;20047;-60
2021/03/07 10:10:13;;;;;;;6.32;5.47;;;;;;;9.85;38.32;97932.03;5045612;28;20123;-60
2021/03/07 10:12:59;;;;;;;7.82;6.22;;;;;;;9.96;38.37;97926.84;5045747;28;20083;-60
2021/03/07 10:15:43;;;;;;;6.47;5.47;;;;;;;10.08;37.87;97952.66;5045087;28;20064;-62
2021/03/07 10:18:27;;;;;;;8.82;5.38;;;;;;;10.65;36.24;97895.09;5045745;28;20035;-63
2021/03/07 10:21:11;;;;;;;10.50;6.28;;;;;;;10.99;36.14;97915.91;5044386;28;20044;-62
2021/03/07 10:24:06;;;;;;;8.50;5.82;;;;;;;11.35;34.69;97973.25;5045457;28;20091;-63
2021/03/07 10:26:51;;;;;;;6.80;5.63;;;;;;;10.97;34.69;97900.81;5045479;28;20063;-61
2021/03/07 10:29:37;;;;;;;7.47;5.05;;;;;;;11.08;35.57;97879.75;4952396;28;20103;-60
2021/03/07 10:32:21;;;;;;;9.55;6.80;;;;;;;11.32;34.01;97846.31;5074199;28;20155;-62
2021/03/07 10:35:10;;;;;;;11.18;5.32;;;;;;;11.33;33.92;97881.25;5063787;28;20082;-63
2021/03/07 10:37:54;;;;;;;15.02;7.72;;;;;;;11.35;34.79;97853.97;5063879;28;20039;-63
2021/03/07 10:40:38;;;;;;;9.00;6.25;;;;;;;11.46;33.02;97825.31;5065302;28;20433;-62
2021/03/07 10:43:23;;;;;;;6.60;5.40;;;;;;;11.22;33.44;97844.91;5065012;28;20097;-61
2021/03/07 10:46:08;;;;;;;7.55;5.28;;;;;;;11.41;34.18;97850.53;5065119;28;20108;-61
2021/03/07 10:48:56;;;;;;;8.80;6.13;;;;;;;11.42;34.04;97823.63;5065051;28;20054;-61
2021/03/07 10:51:41;;;;;;;9.90;4.82;;;;;;;11.37;33.77;97832.19;5064652;28;20104;-62
2021/03/07 10:54:24;;;;;;;8.18;5.63;;;;;;;11.05;33.95;97847.19;5063509;28;20194;-63
2021/03/07 10:57:10;;;;;;;9.77;6.47;;;;;;;10.67;33.65;97819.94;5063061;28;20121;-61
2021/03/07 10:59:54;;;;;;;9.82;6.20;;;;;;;10.52;34.04;97840.91;5062981;28;20427;-63
2021/03/07 11:02:38;;;;;;;7.50;5.47;;;;;;;10.06;34.61;97774.16;5064749;28;20608;-62
2021/03/07 11:05:23;;;;;;;5.50;4.55;;;;;;;10.27;34.40;97822.75;5064403;28;20154;-63
2021/03/07 11:08:07;;;;;;;6.35;4.80;;;;;;;10.00;34.93;97817.91;5064857;28;20048;-62
2021/03/07 11:10:51;;;;;;;14.50;6.75;;;;;;;9.97;35.77;97810.31;5064701;28;20094;-62
2021/03/07 11:13:35;;;;;;;6.75;5.28;;;;;;;9.90;35.33;97818.38;5063169;28;20043;-62
2021/03/07 11:16:19;;;;;;;11.85;6.85;;;;;;;9.67;35.48;97783.22;5062860;28;20174;-62
2021/03/07 11:19:03;;;;;;;;;;;;;;;9.82;34.88;97810.97;5065211;28;20124;-62
2021/03/07 11:21:47;;;;;;;11.00;5.53;;;;;;;9.27;34.82;97743.56;5064361;28;20029;-63
2021/03/07 11:24:31;;;;;;;7.53;5.00;;;;;;;8.49;35.47;97671.84;5064340;28;20129;-62
2021/03/07 11:27:15;;;;;;;6.35;4.30;;;;;;;8.80;36.02;97785.38;5065967;28;20575;-63
2021/03/07 11:29:59;;;;;;;;;;;;;;;8.95;36.10;97795.81;5084147;28;20066;-66
2021/03/07 11:32:43;;;;;;;7.47;4.68;;;;;;;8.67;37.07;97807.78;5084468;28;20010;-63
2021/03/07 11:35:27;;;;;;;76.63;30.70;;;;;;;8.83;36.81;97734.19;5084762;28;20418;-62
2021/03/07 11:38:11;;;;;;;18.50;9.70;;;;;;;9.37;37.12;97781.81;5083304;28;20516;-63
2021/03/07 11:40:55;;;;;;;10.93;7.00;;;;;;;9.53;36.88;97778.00;5084265;28;20520;-62
2021/03/07 11:43:39;;;;;;;14.88;7.20;;;;;;;9.72;37.31;97767.19;5083295;28;20055;-62
2021/03/07 11:46:23;;;;;;;6.15;4.10;;;;;;;9.79;36.17;97750.81;5084909;28;20038;-63
2021/03/07 11:49:07;;;;;;;77.95;31.40;;;;;;;9.53;36.86;97670.16;5083198;28;20043;-64
2021/03/07 11:51:51;;;;;;;;;;;;;;;9.81;36.11;97737.44;5085036;28;20114;-63
2021/03/07 11:54:37;;;;;;;7.30;5.15;;;;;;;9.49;36.35;97746.69;5083954;28;20487;-62
2021/03/07 11:57:21;;;;;;;9.98;7.03;;;;;;;9.78;37.06;97727.06;5082829;28;20122;-62
2021/03/07 12:00:06;;;;;;;18.17;10.15;;;;;;;10.04;36.57;97723.88;5083819;28;20116;-62
2021/03/07 12:02:50;;;;;;;14.57;9.43;;;;;;;10.03;36.10;97716.75;5083812;28;20498;-63
2021/03/07 12:05:34;;;;;;;17.67;12.48;;;;;;;10.16;36.36;97710.06;5083405;28;20050;-62
2021/03/07 12:08:18;;;;;;;13.02;9.50;;;;;;;10.41;35.71;97717.94;5082508;28;20429;-64
2021/03/07 12:11:03;;;;;;;9.88;6.18;;;;;;;10.38;35.78;97690.94;5083843;28;20039;-61
2021/03/07 12:13:47;;;;;;;11.10;5.90;;;;;;;10.09;36.01;97698.75;5082466;28;20422;-62
2021/03/07 12:16:31;;;;;;;8.80;5.88;;;;;;;9.88;36.50;97711.97;5083159;28;20128;-62
2021/03/07 12:19:16;;;;;;;6.68;5.32;;;;;;;9.60;36.29;97675.91;5082161;28;20109;-62
2021/03/07 12:22:00;;;;;;;6.22;3.85;;;;;;;10.02;36.86;97693.00;5082270;28;20101;-62
2021/03/07 12:24:44;;;;;;;6.43;4.35;;;;;;;10.29;35.25;97681.97;5082569;28;20954;-63
2021/03/07 12:27:28;;;;;;;8.63;5.47;;;;;;;9.05;35.95;97471.25;5079973;28;20039;-61
2021/03/07 12:30:13;;;;;;;12.98;8.10;;;;;;;10.25;35.27;97631.22;5063358;28;20478;-63
2021/03/07 12:32:57;;;;;;;9.57;6.30;;;;;;;9.74;35.34;97549.09;5063482;28;20537;-62
2021/03/07 12:35:41;;;;;;;13.43;8.35;;;;;;;10.78;34.11;97670.63;5063270;28;20406;-63
2021/03/07 12:38:25;;;;;;;9.57;5.47;;;;;;;10.94;35.09;97682.53;5062172;28;20196;-62
2021/03/07 12:41:10;;;;;;;10.60;6.68;;;;;;;10.37;34.65;97581.31;5063527;28;20077;-62
2021/03/07 12:43:53;;;;;;;6.93;4.75;;;;;;;11.08;34.08;97652.41;5063327;28;20434;-62
2021/03/07 12:46:38;;;;;;;12.75;7.53;;;;;;;10.99;34.58;97637.88;5063447;28;20247;-63
2021/03/07 12:49:21;;;;;;;6.82;4.78;;;;;;;10.95;34.02;97634.25;5061911;28;20055;-62
2021/03/07 12:52:06;;;;;;;8.75;6.45;;;;;;;8.35;34.79;97253.75;5062771;28;20571;-62
2021/03/07 12:54:50;;;;;;;6.70;4.80;;;;;;;10.81;34.34;97636.66;5062733;28;20097;-62
2021/03/07 12:57:34;;;;;;;6.68;4.47;;;;;;;10.47;34.18;97627.88;5063615;28;20131;-63
2021/03/07 13:00:18;;;;;;;;;;;;;;;10.46;34.44;97631.78;5063788;28;20044;-63
2021/03/07 13:03:02;;;;;;;7.00;4.63;;;;;;;10.34;34.82;97623.56;5062092;28;20037;-61